Time;durP1;ratioP1;P1;durP2;ratioP2;P2;SDS_P1;SDS_P2;PMS_P1;PMS_P2;Temp;Humidity;BMP_temperature;BMP_pressure;BME280_temperature;BME280_humidity;BME280_pressure;Samples;Min_cycle;Max_cycle;Signal;HPM_P1;HPM_P2
2022/09/23 00:02:05;;;;;;;1.92;1.50;;;;;;;14.82;44.67;101430.19;5066918;28;20374;-59
2022/09/23 00:04:31;;;;;;;1.50;1.40;;;;;;;14.73;44.66;101428.59;5049234;28;20390;-59
2022/09/23 00:06:56;;;;;;;1.42;1.30;;;;;;;14.72;44.79;101432.25;5047031;28;20444;-59
2022/09/23 00:09:23;;;;;;;1.73;1.50;;;;;;;14.71;44.87;101430.59;5047389;28;20390;-58
2022/09/23 00:11:48;;;;;;;1.70;1.50;;;;;;;14.71;44.77;101422.56;5059012;28;20374;-58
2022/09/23 00:14:14;;;;;;;2.00;1.40;;;;;;;14.69;44.82;101417.44;5046271;28;20479;-58
2022/09/23 00:16:39;;;;;;;1.75;1.48;;;;;;;14.64;44.85;101422.50;5046023;28;20385;-59
2022/09/23 00:19:05;;;;;;;1.97;1.67;;;;;;;14.68;44.89;101422.97;5046529;28;20384;-59
2022/09/23 00:21:30;;;;;;;1.80;1.55;;;;;;;14.64;45.04;101413.63;5063584;28;20375;-59
2022/09/23 00:27:41;;;;;;;2.17;1.38;;;;;;;14.56;45.08;101414.50;5072009;27;20828;-59
2022/09/23 00:30:08;;;;;;;1.50;1.33;;;;;;;14.56;45.29;101413.69;5086953;28;20398;-57
2022/09/23 00:32:36;;;;;;;1.73;1.38;;;;;;;14.50;45.14;101415.22;5087022;28;20389;-59
2022/09/23 00:35:02;;;;;;;2.17;1.70;;;;;;;14.46;45.48;101413.94;5087023;28;20366;-58
2022/09/23 00:39:08;;;;;;;3.58;2.35;;;;;;;14.44;45.42;101407.94;5082502;27;20943;-59
2022/09/23 00:42:19;;;;;;;3.55;1.58;;;;;;;14.44;45.56;101415.94;5087553;27;20406;-58
2022/09/23 00:44:49;;;;;;;2.58;1.63;;;;;;;14.38;45.61;101408.66;5066962;28;20443;-59
2022/09/23 00:49:34;;;;;;;3.40;1.50;;;;;;;14.32;45.77;101412.88;5073828;28;20436;-58
2022/09/23 00:52:10;;;;;;;2.72;1.65;;;;;;;14.29;46.00;101410.53;5046888;28;20394;-60
2022/09/23 00:54:36;;;;;;;2.90;1.60;;;;;;;14.27;45.94;101416.03;5032630;28;20914;-59
2022/09/23 00:57:04;;;;;;;1.90;1.60;;;;;;;14.30;45.73;101417.53;5046191;28;20382;-59
2022/09/23 00:59:30;;;;;;;1.50;1.40;;;;;;;14.30;45.81;101418.38;5032594;28;20384;-61
2022/09/23 01:01:58;;;;;;;3.40;1.70;;;;;;;14.29;45.79;101414.03;5046726;28;20390;-59
2022/09/23 01:04:27;;;;;;;2.13;1.63;;;;;;;14.32;46.06;101410.19;5046230;28;20405;-59
2022/09/23 01:06:52;;;;;;;2.40;1.70;;;;;;;14.28;46.22;101408.91;5046610;28;20381;-59
2022/09/23 01:09:19;;;;;;;2.93;1.87;;;;;;;14.28;45.94;101411.56;5046405;28;20424;-58
2022/09/23 01:12:03;;;;;;;2.92;1.50;;;;;;;14.23;46.16;101413.94;5032679;28;20484;-59
2022/09/23 01:16:57;;;;;;;2.30;1.63;;;;;;;14.23;46.11;101413.94;5101240;27;20472;-59
2022/09/23 01:19:35;;;;;;;2.00;1.70;;;;;;;14.22;46.28;101418.41;5087456;28;20404;-59
2022/09/23 01:22:29;;;;;;;1.85;1.67;;;;;;;14.17;46.39;101411.94;5076590;27;20404;-58
2022/09/23 01:25:35;;;;;;;1.90;1.60;;;;;;;14.12;46.44;101413.31;5052561;28;20401;-58
2022/09/23 01:28:29;;;;;;;2.25;1.90;;;;;;;14.07;46.55;101417.53;5066698;28;20392;-58
2022/09/23 01:31:22;;;;;;;2.65;1.58;;;;;;;14.05;46.77;101408.88;5045370;28;20383;-58
2022/09/23 01:35:46;;;;;;;2.17;1.70;;;;;;;14.07;46.57;101420.19;5100255;27;20463;-60
2022/09/23 01:38:21;;;;;;;2.88;1.50;;;;;;;14.09;46.48;101426.16;5086894;28;20426;-59
2022/09/23 01:40:58;;;;;;;2.10;1.90;;;;;;;14.06;46.55;101414.03;5086710;28;20393;-58
2022/09/23 01:43:30;;;;;;;2.85;1.75;;;;;;;14.06;46.79;101415.84;5072929;28;20897;-59
2022/09/23 01:45:59;;;;;;;2.20;1.60;;;;;;;14.09;46.66;101416.31;5066743;28;20434;-59
2022/09/23 01:51:35;;;;;;;3.15;1.77;;;;;;;14.04;46.76;101408.03;5095285;27;20780;-59
2022/09/23 01:54:24;;;;;;;3.40;1.70;;;;;;;13.96;46.77;101413.41;5086415;28;20895;-60
2022/09/23 01:57:59;;;;;;;2.38;1.60;;;;;;;13.95;46.90;101417.06;5060607;28;20413;-59
2022/09/23 02:00:28;;;;;;;1.90;1.65;;;;;;;13.96;46.56;101424.91;5046551;28;20417;-59
2022/09/23 02:03:05;;;;;;;3.53;1.80;;;;;;;13.92;46.99;101423.59;5047190;28;20428;-59
2022/09/23 02:05:41;;;;;;;1.73;1.60;;;;;;;13.89;46.95;101413.28;5047046;28;20393;-59
2022/09/23 02:08:28;;;;;;;2.38;1.60;;;;;;;13.87;47.34;101415.28;5046506;28;20422;-59
2022/09/23 02:11:42;;;;;;;2.40;1.70;;;;;;;13.90;47.08;101419.44;5049721;28;20403;-59
2022/09/23 02:14:26;;;;;;;2.28;1.80;;;;;;;13.90;47.27;101428.28;5026394;28;20418;-58
2022/09/23 02:18:14;;;;;;;2.50;1.80;;;;;;;13.89;47.01;101429.25;5096250;27;20424;-59
2022/09/23 02:21:45;;;;;;;1.70;1.60;;;;;;;13.89;46.81;101429.25;5052584;28;20816;-59
2022/09/23 02:25:07;;;;;;;2.00;1.65;;;;;;;13.90;47.20;101433.59;5078542;27;20829;-59
2022/09/23 02:27:51;;;;;;;2.55;1.83;;;;;;;13.92;46.92;101423.59;5066540;28;20408;-59
2022/09/23 02:30:26;;;;;;;2.20;1.70;;;;;;;13.94;46.95;101428.75;5047170;28;20848;-59
2022/09/23 02:33:14;;;;;;;1.80;1.70;;;;;;;13.91;46.81;101429.91;5057676;28;20874;-60
2022/09/23 02:36:04;;;;;;;2.30;1.80;;;;;;;13.94;46.94;101437.56;5065857;28;20423;-59
2022/09/23 02:38:51;;;;;;;3.57;2.00;;;;;;;13.92;46.73;101426.25;5052218;28;20386;-59
2022/09/23 02:43:08;;;;;;;2.58;1.80;;;;;;;13.87;46.83;101433.13;5054028;28;20834;-60
2022/09/23 02:45:36;;;;;;;3.85;1.90;;;;;;;13.87;47.15;101433.94;5028876;28;20407;-58
2022/09/23 02:48:12;;;;;;;3.00;1.98;;;;;;;13.86;47.04;101439.44;5036467;28;20382;-59
2022/09/23 02:52:51;;;;;;;4.50;4.10;;;;;;;13.71;47.13;101442.84;5090786;27;20832;-59
2022/09/23 02:55:21;;;;;;;4.18;3.78;;;;;;;13.68;47.48;101445.84;5066557;28;20391;-59
2022/09/23 02:57:47;;;;;;;2.78;2.58;;;;;;;13.62;47.35;101443.88;5052526;28;20467;-60
2022/09/23 03:00:13;;;;;;;2.55;2.30;;;;;;;13.58;47.35;101437.25;5066437;28;20889;-58
2022/09/23 03:03:46;;;;;;;3.05;2.05;;;;;;;13.60;47.40;101453.06;5086312;27;20412;-58
2022/09/23 03:06:19;;;;;;;2.58;2.10;;;;;;;13.54;47.40;101451.88;5066681;28;20407;-58
2022/09/23 03:09:11;;;;;;;2.78;1.98;;;;;;;13.57;47.41;101448.88;5066890;28;20391;-59
2022/09/23 03:11:42;;;;;;;2.83;1.90;;;;;;;13.53;47.47;101444.91;5062935;28;20471;-59
2022/09/23 03:14:07;;;;;;;2.27;2.00;;;;;;;13.52;47.86;101446.75;5066418;28;20735;-59
2022/09/23 03:16:36;;;;;;;4.13;2.07;;;;;;;13.49;47.69;101449.75;5065979;28;20532;-59
2022/09/23 03:19:16;;;;;;;3.80;2.10;;;;;;;13.48;47.80;101447.25;5066650;28;20390;-58
2022/09/23 03:23:33;;;;;;;2.53;2.30;;;;;;;13.44;47.79;101453.94;5049134;28;20406;-59
2022/09/23 03:28:22;;;;;;;4.22;2.30;;;;;;;13.41;48.15;101446.28;5078669;27;20408;-59
2022/09/23 03:30:53;;;;;;;2.50;2.00;;;;;;;13.39;48.03;101449.91;5054653;28;20407;-59
2022/09/23 03:39:19;;;;;;;4.00;2.35;;;;;;;13.37;48.20;101445.78;5127559;28;20432;-58
2022/09/23 03:41:49;;;;;;;2.90;2.20;;;;;;;13.33;48.43;101445.28;5126722;28;20394;-57
2022/09/23 03:44:16;;;;;;;4.95;2.35;;;;;;;13.31;48.53;101454.47;5126862;28;20386;-58
2022/09/23 03:46:48;;;;;;;2.53;2.30;;;;;;;13.25;48.37;101452.44;5126871;28;20426;-58
2022/09/23 03:49:17;;;;;;;2.90;2.42;;;;;;;13.27;48.42;101451.28;5127687;28;20426;-58
2022/09/23 03:51:42;;;;;;;3.17;2.17;;;;;;;13.30;48.48;101460.75;5126494;28;20482;-58
2022/09/23 03:54:08;;;;;;;2.97;2.40;;;;;;;13.28;48.62;101452.91;5127456;28;20415;-59
2022/09/23 03:56:34;;;;;;;3.20;2.50;;;;;;;13.35;48.90;101461.09;5126439;28;20406;-59
2022/09/23 03:58:59;;;;;;;3.65;2.47;;;;;;;13.35;48.58;101461.94;5126899;28;20517;-59
2022/09/23 04:01:25;;;;;;;3.60;2.80;;;;;;;13.31;48.60;101460.59;5122236;28;20388;-59
2022/09/23 04:03:52;;;;;;;3.03;2.50;;;;;;;13.28;48.91;101455.59;5123438;28;20485;-59
2022/09/23 04:06:18;;;;;;;3.85;2.70;;;;;;;13.24;48.85;101456.09;5124476;28;20386;-59
2022/09/23 04:11:07;;;;;;;3.70;3.00;;;;;;;13.29;49.11;101475.03;5074546;27;20469;-60
2022/09/23 04:13:33;;;;;;;4.95;3.72;;;;;;;13.24;49.13;101472.91;5072429;28;20395;-59
2022/09/23 04:15:59;;;;;;;4.27;2.80;;;;;;;13.29;49.16;101478.56;5066710;28;20479;-59
2022/09/23 04:18:24;;;;;;;5.37;3.10;;;;;;;13.27;49.20;101475.25;5078880;28;20382;-59
2022/09/23 04:20:50;;;;;;;4.22;3.15;;;;;;;13.29;49.28;101475.03;5072066;28;20762;-59
2022/09/23 04:23:15;;;;;;;3.40;2.90;;;;;;;13.29;48.82;101483.88;5078300;28;20390;-59
2022/09/23 04:25:48;;;;;;;4.65;3.33;;;;;;;13.27;49.14;101483.22;5069233;28;20422;-59
2022/09/23 04:28:14;;;;;;;6.47;3.65;;;;;;;13.29;49.04;101485.69;5068559;28;20384;-58
2022/09/23 04:32:33;;;;;;;5.43;3.78;;;;;;;13.34;49.03;101494.91;5088600;27;20406;-59
2022/09/23 04:34:58;;;;;;;4.80;3.45;;;;;;;13.40;49.11;101498.72;5055206;28;20421;-59
2022/09/23 04:37:24;;;;;;;4.70;3.37;;;;;;;13.51;48.69;101493.03;5052708;28;20900;-58
2022/09/23 04:41:52;;;;;;;5.50;3.35;;;;;;;13.85;48.35;101494.59;5045553;28;20410;-59
2022/09/23 04:44:18;;;;;;;7.22;3.45;;;;;;;14.03;47.57;101494.34;5024415;28;20844;-60
2022/09/23 04:46:46;;;;;;;5.32;3.40;;;;;;;14.21;47.24;101493.28;5033709;28;20480;-59
2022/09/23 04:49:13;;;;;;;4.43;3.33;;;;;;;14.47;47.00;101506.28;5024932;28;20824;-59
2022/09/23 04:51:42;;;;;;;4.95;3.25;;;;;;;14.71;46.56;101500.81;5016159;28;20392;-59
2022/09/23 04:55:47;;;;;;;3.60;3.10;;;;;;;15.00;45.73;101498.41;5074490;27;20410;-58
2022/09/23 04:58:12;;;;;;;7.10;4.50;;;;;;;15.22;45.37;101510.09;5066212;28;20959;-59
2022/09/23 05:00:38;;;;;;;7.10;3.53;;;;;;;15.38;45.13;101499.25;5066288;28;20383;-59
2022/09/23 05:03:03;;;;;;;4.30;3.40;;;;;;;15.63;44.73;101501.66;5065538;28;20385;-59
2022/09/23 05:05:29;;;;;;;4.67;3.30;;;;;;;15.85;44.28;101498.09;5064107;28;20424;-58
2022/09/23 05:07:55;;;;;;;6.13;3.10;;;;;;;16.05;43.81;101497.50;5065560;28;20896;-60
2022/09/23 05:10:21;;;;;;;5.10;3.08;;;;;;;16.21;43.33;101501.81;5065485;28;20371;-59
2022/09/23 05:12:47;;;;;;;4.57;3.13;;;;;;;16.37;42.96;101496.25;5065466;28;20896;-59
2022/09/23 05:15:14;;;;;;;3.45;2.95;;;;;;;16.48;42.79;101504.81;5063916;28;20403;-59
2022/09/23 05:17:41;;;;;;;3.53;3.22;;;;;;;16.65;42.22;101498.16;5064928;28;20496;-58
2022/09/23 05:20:09;;;;;;;3.15;2.88;;;;;;;16.89;42.03;101507.72;5065241;28;20380;-59
2022/09/23 05:22:34;;;;;;;3.78;3.10;;;;;;;17.12;41.57;101502.09;5065262;28;20388;-58
2022/09/23 05:25:01;;;;;;;5.33;3.10;;;;;;;17.42;40.95;101509.97;5062615;28;20372;-58
2022/09/23 05:27:27;;;;;;;4.70;3.20;;;;;;;17.66;40.49;101505.97;5065138;28;20395;-59
2022/09/23 05:29:52;;;;;;;7.05;3.60;;;;;;;17.92;40.15;101505.34;5064624;28;20441;-58
2022/09/23 05:32:18;;;;;;;4.63;3.20;;;;;;;18.06;39.57;101511.59;5065431;28;20376;-59
2022/09/23 05:36:28;;;;;;;3.60;3.22;;;;;;;18.51;38.95;101505.72;5052671;28;20409;-58
2022/09/23 05:38:56;;;;;;;4.87;3.40;;;;;;;18.84;38.29;101502.31;5043128;28;20943;-59
2022/09/23 05:41:22;;;;;;;4.85;3.90;;;;;;;19.08;37.87;101503.56;5043068;28;20417;-59
2022/09/23 05:43:52;;;;;;;5.65;3.97;;;;;;;19.34;37.48;101500.03;5041063;28;20951;-59
2022/09/23 05:46:18;;;;;;;4.93;4.20;;;;;;;19.71;36.65;101503.03;5039443;28;20387;-59
2022/09/23 05:48:46;;;;;;;7.22;3.70;;;;;;;20.12;36.09;101514.53;5031557;28;20422;-58
2022/09/23 05:51:23;;;;;;;4.80;4.30;;;;;;;20.51;35.45;101509.97;5035038;28;20377;-58
2022/09/23 05:53:51;;;;;;;5.28;4.20;;;;;;;20.80;34.92;101505.88;5039583;28;20875;-60
2022/09/23 05:56:19;;;;;;;5.15;4.07;;;;;;;21.14;34.18;101493.78;5044163;28;20501;-58
2022/09/23 05:58:47;;;;;;;12.40;4.40;;;;;;;21.46;33.91;101500.97;5038223;28;20416;-59
2022/09/23 06:01:19;;;;;;;5.90;3.63;;;;;;;21.73;33.25;101507.75;5039725;28;20990;-58
2022/09/23 06:03:49;;;;;;;3.30;3.00;;;;;;;21.95;32.71;101505.41;5040608;28;20452;-58
2022/09/23 06:06:16;;;;;;;4.55;3.28;;;;;;;22.19;32.63;101499.28;5035914;28;20439;-59
2022/09/23 06:08:43;;;;;;;3.33;2.60;;;;;;;22.42;32.10;101498.56;5038213;28;20384;-59
2022/09/23 06:11:09;;;;;;;3.28;2.90;;;;;;;22.72;31.88;101506.66;5041054;28;20377;-58
2022/09/23 06:13:38;;;;;;;3.25;2.88;;;;;;;22.96;31.38;101502.13;5029232;28;20441;-59
2022/09/23 06:16:10;;;;;;;3.30;2.72;;;;;;;23.29;30.76;101498.84;5027221;28;20419;-58
2022/09/23 06:18:43;;;;;;;3.43;2.70;;;;;;;23.81;30.11;101500.00;5045052;28;20397;-58
2022/09/23 06:21:15;;;;;;;5.05;2.78;;;;;;;24.68;28.77;101501.66;5041985;28;20385;-59
2022/09/23 06:23:42;;;;;;;4.15;3.08;;;;;;;26.01;27.18;101485.66;5040208;28;20760;-58
2022/09/23 06:26:10;;;;;;;5.15;3.17;;;;;;;26.61;26.15;101492.78;5038659;28;20377;-59
2022/09/23 06:28:38;;;;;;;5.65;3.60;;;;;;;27.15;25.04;101491.03;5038239;28;20449;-58
2022/09/23 06:31:09;;;;;;;5.38;3.97;;;;;;;27.88;24.09;101487.59;5032483;28;20387;-58
2022/09/23 06:33:35;;;;;;;5.80;3.90;;;;;;;28.67;23.44;101491.06;5028798;28;20382;-59
2022/09/23 06:37:19;;;;;;;6.95;4.13;;;;;;;29.47;22.33;101482.19;5083782;27;20785;-58
2022/09/23 06:39:45;;;;;;;8.23;4.40;;;;;;;29.98;21.98;101479.25;5072068;28;20889;-59
2022/09/23 06:42:10;;;;;;;6.47;5.18;;;;;;;30.91;20.55;101484.03;5073090;28;20394;-59
2022/09/23 06:44:36;;;;;;;5.73;4.57;;;;;;;31.55;20.41;101479.28;5078874;28;20380;-59
2022/09/23 06:47:01;;;;;;;5.37;2.90;;;;;;;31.88;19.89;101482.94;5072288;28;20874;-59
2022/09/23 06:49:27;;;;;;;2.83;2.30;;;;;;;31.99;19.81;101473.44;5067824;28;20380;-59
2022/09/23 06:51:54;;;;;;;2.78;2.00;;;;;;;31.65;19.65;101476.41;5074523;28;20383;-59
2022/09/23 06:54:20;;;;;;;5.53;2.20;;;;;;;30.47;20.92;101478.41;5074197;28;20391;-59
2022/09/23 06:56:46;;;;;;;4.00;2.22;;;;;;;29.00;22.65;101489.66;5075149;28;20410;-60
2022/09/23 06:59:15;;;;;;;3.22;2.03;;;;;;;27.91;23.80;101481.63;5083576;28;20393;-59
2022/09/23 07:01:41;;;;;;;3.47;1.88;;;;;;;27.34;24.34;101488.72;5078229;28;20877;-59
2022/09/23 07:04:09;;;;;;;2.42;1.92;;;;;;;26.94;24.63;101496.34;5077223;28;20391;-59
2022/09/23 07:06:35;;;;;;;2.50;1.98;;;;;;;26.58;25.06;101492.44;5077600;28;20388;-59
2022/09/23 07:09:00;;;;;;;2.17;1.90;;;;;;;26.40;25.10;101496.38;5075421;28;20393;-58
2022/09/23 07:11:26;;;;;;;3.33;2.15;;;;;;;26.18;25.21;101494.56;5077233;28;20380;-59
2022/09/23 07:13:52;;;;;;;3.37;1.90;;;;;;;25.91;25.88;101505.31;5074699;28;20817;-59
2022/09/23 07:16:17;;;;;;;2.88;1.73;;;;;;;25.83;25.78;101498.44;5074013;28;20910;-59
2022/09/23 07:18:43;;;;;;;2.60;1.80;;;;;;;25.63;25.82;101493.59;5070154;28;20394;-59
2022/09/23 07:21:14;;;;;;;2.75;1.83;;;;;;;25.37;26.12;101497.84;5075044;28;20390;-60
2022/09/23 07:23:45;;;;;;;2.58;1.88;;;;;;;25.21;26.41;101499.50;5070062;28;20474;-59
2022/09/23 07:26:11;;;;;;;3.60;1.98;;;;;;;24.99;26.79;101507.56;5069210;28;20971;-59
2022/09/23 07:28:37;;;;;;;2.20;2.00;;;;;;;24.80;26.77;101507.00;5067776;28;20781;-59
2022/09/23 07:31:06;;;;;;;2.50;1.88;;;;;;;24.64;27.14;101495.09;5068140;28;20446;-59
2022/09/23 07:33:33;;;;;;;3.28;1.70;;;;;;;24.61;27.14;101506.41;5064214;28;20874;-59
2022/09/23 07:36:03;;;;;;;2.53;1.50;;;;;;;24.54;27.23;101503.88;5070959;28;20419;-59
2022/09/23 07:38:45;;;;;;;3.00;1.80;;;;;;;24.51;27.03;101500.78;5073239;27;20777;-59
2022/09/23 07:41:12;;;;;;;8.23;2.30;;;;;;;24.27;27.36;101505.50;5072164;28;20894;-59
2022/09/23 07:43:39;;;;;;;2.63;2.00;;;;;;;24.19;27.75;101510.22;5074639;28;20384;-59
2022/09/23 07:46:08;;;;;;;3.03;2.10;;;;;;;24.25;27.93;101513.84;5069698;28;20399;-59
2022/09/23 07:48:34;;;;;;;3.67;1.98;;;;;;;24.17;28.01;101509.66;5080154;28;20409;-59
2022/09/23 07:51:06;;;;;;;4.00;2.40;;;;;;;23.70;28.68;101506.22;5067673;28;20388;-59
2022/09/23 07:53:32;;;;;;;3.65;2.05;;;;;;;23.74;28.84;101515.53;5076706;28;20390;-59
2022/09/23 07:55:58;;;;;;;3.37;2.40;;;;;;;23.82;28.50;101505.19;5079646;28;20393;-60
2022/09/23 07:58:25;;;;;;;2.20;1.95;;;;;;;23.82;28.60;101507.06;5074061;28;20820;-60
2022/09/23 08:00:52;;;;;;;2.10;1.80;;;;;;;23.71;28.96;101505.16;5069961;28;20386;-60
2022/09/23 08:03:18;;;;;;;4.95;2.10;;;;;;;23.72;28.72;101501.41;5081974;28;20735;-59
2022/09/23 08:05:45;;;;;;;2.47;2.00;;;;;;;23.62;28.73;101512.81;5074721;28;20949;-59
2022/09/23 08:08:12;;;;;;;3.40;2.08;;;;;;;23.44;28.57;101502.97;5078695;28;20376;-59
2022/09/23 08:10:39;;;;;;;2.00;1.90;;;;;;;23.41;29.07;101506.97;5076893;28;20409;-60
2022/09/23 08:13:04;;;;;;;2.20;1.83;;;;;;;23.41;28.93;101511.56;5071329;28;20415;-58
2022/09/23 08:15:30;;;;;;;2.20;1.97;;;;;;;23.46;28.75;101508.97;5075490;28;20392;-59
2022/09/23 08:18:00;;;;;;;3.22;1.88;;;;;;;23.45;28.73;101508.16;5077257;28;20497;-59
2022/09/23 08:20:44;;;;;;;2.88;1.80;;;;;;;23.45;28.56;101510.03;5075937;28;20561;-59
2022/09/23 08:23:13;;;;;;;2.13;1.67;;;;;;;23.45;28.55;101510.03;5068718;28;20382;-59
2022/09/23 08:25:40;;;;;;;2.43;1.70;;;;;;;23.52;28.41;101510.72;5076161;28;20387;-59
2022/09/23 08:28:05;;;;;;;4.10;1.50;;;;;;;23.61;27.83;101508.50;5077062;28;20386;-59
2022/09/23 08:30:31;;;;;;;3.47;1.70;;;;;;;23.59;28.23;101514.13;5073093;28;20473;-60
2022/09/23 08:32:56;;;;;;;2.35;1.70;;;;;;;23.56;28.10;101506.47;5070004;28;20385;-59
2022/09/23 08:35:22;;;;;;;2.43;1.80;;;;;;;23.54;28.42;101505.09;5072795;28;20414;-59
2022/09/23 08:37:47;;;;;;;1.90;1.40;;;;;;;23.61;27.85;101500.38;5073108;28;20819;-59
2022/09/23 08:40:13;;;;;;;1.48;1.38;;;;;;;23.47;27.87;101491.69;5070197;28;20761;-59
2022/09/23 08:42:42;;;;;;;2.37;1.93;;;;;;;23.40;28.26;101489.09;5067889;28;20881;-59
2022/09/23 08:45:16;;;;;;;3.75;2.10;;;;;;;23.51;28.47;101503.66;5066841;28;20419;-58
2022/09/23 08:47:50;;;;;;;1.98;1.70;;;;;;;23.48;28.56;101493.34;5076447;28;20481;-59
2022/09/23 08:50:20;;;;;;;5.43;1.80;;;;;;;23.48;28.53;101494.16;5059882;28;20466;-58
2022/09/23 08:52:57;;;;;;;2.28;1.42;;;;;;;23.46;28.57;101493.56;5056354;28;20383;-58
2022/09/23 08:55:31;;;;;;;3.42;1.60;;;;;;;23.50;28.19;101496.63;5062091;28;20904;-57
2022/09/23 08:58:08;;;;;;;2.80;1.35;;;;;;;23.53;27.82;101495.31;5058336;28;20769;-59
2022/09/23 09:00:48;;;;;;;3.55;1.50;;;;;;;23.29;27.96;101495.34;5066058;28;20947;-60
2022/09/23 09:03:21;;;;;;;2.60;1.65;;;;;;;23.37;28.51;101486.03;5058181;28;20468;-59
2022/09/23 09:05:49;;;;;;;3.38;1.70;;;;;;;23.35;28.48;101491.66;5052233;28;20541;-59
2022/09/23 09:08:36;;;;;;;3.00;1.63;;;;;;;23.34;28.70;101492.75;5061705;28;20384;-59
2022/09/23 09:11:03;;;;;;;17.63;2.97;;;;;;;23.36;28.66;101493.34;5055040;28;20386;-60
2022/09/23 09:13:33;;;;;;;3.50;1.63;;;;;;;23.50;28.66;101493.91;5052508;28;20392;-59
2022/09/23 09:16:11;;;;;;;1.88;1.42;;;;;;;23.42;28.52;101496.97;5051916;28;20893;-59
2022/09/23 09:18:52;;;;;;;1.97;1.47;;;;;;;23.29;28.62;101493.44;5062239;28;20417;-58
2022/09/23 09:21:22;;;;;;;3.30;1.48;;;;;;;23.33;28.30;101487.56;5066638;28;20899;-59
2022/09/23 09:23:56;;;;;;;3.22;1.50;;;;;;;23.23;28.62;101488.19;5062677;28;20381;-59
2022/09/23 09:26:28;;;;;;;1.67;1.10;;;;;;;23.27;29.11;101483.94;5061970;28;20397;-60
2022/09/23 09:29:03;;;;;;;3.10;1.40;;;;;;;23.33;29.02;101487.56;5059475;28;20389;-60
2022/09/23 09:31:37;;;;;;;13.55;2.17;;;;;;;23.26;29.16;101483.13;5054544;28;20463;-59
2022/09/23 09:34:23;;;;;;;1.73;1.42;;;;;;;23.17;28.90;101484.50;5069133;28;20382;-59
2022/09/23 09:37:05;;;;;;;3.15;1.40;;;;;;;23.15;29.24;101488.50;5055184;28;21416;-59
2022/09/23 09:39:32;;;;;;;1.33;1.10;;;;;;;23.16;28.83;101482.06;5056228;28;20387;-59
2022/09/23 09:41:59;;;;;;;1.52;1.05;;;;;;;23.18;28.67;101482.66;5058178;28;20894;-60
2022/09/23 09:44:33;;;;;;;1.20;1.10;;;;;;;23.12;28.78;101475.44;5057033;28;20763;-60
2022/09/23 09:47:37;;;;;;;2.10;1.42;;;;;;;23.17;28.60;101484.50;5051513;28;20386;-58
2022/09/23 09:50:09;;;;;;;1.17;0.90;;;;;;;23.19;28.59;101478.88;5047563;28;20395;-59
2022/09/23 09:52:34;;;;;;;0.80;0.80;;;;;;;23.09;28.30;101474.88;5050108;28;20452;-57
2022/09/23 09:55:12;;;;;;;1.90;1.10;;;;;;;23.09;28.37;101474.88;5057603;28;20471;-60
2022/09/23 09:57:53;;;;;;;1.15;0.90;;;;;;;23.18;27.90;101475.34;5061650;28;20415;-59
2022/09/23 10:00:34;;;;;;;2.42;1.50;;;;;;;23.14;27.86;101474.19;5053219;28;20795;-59
2022/09/23 10:03:12;;;;;;;2.83;1.20;;;;;;;22.92;28.08;101465.78;5059372;28;20916;-59
2022/09/23 10:05:46;;;;;;;1.25;0.93;;;;;;;22.80;28.62;101475.78;5052073;28;20397;-60
2022/09/23 10:08:17;;;;;;;2.05;1.10;;;;;;;22.87;28.43;101473.78;5059919;28;20938;-59
2022/09/23 10:10:53;;;;;;;2.45;1.20;;;;;;;23.02;28.32;101467.91;5057720;28;20924;-59
2022/09/23 10:15:46;;;;;;;2.20;0.90;;;;;;;23.08;28.15;101465.13;5069922;27;20412;-59
2022/09/23 10:18:19;;;;;;;2.27;1.60;;;;;;;23.02;27.63;101471.44;5079415;28;20447;-59
2022/09/23 10:20:45;;;;;;;1.38;0.80;;;;;;;23.05;27.83;101467.47;5071229;28;20388;-59
2022/09/23 10:23:19;;;;;;;1.70;0.90;;;;;;;23.17;27.83;101462.88;5073193;28;20374;-58
2022/09/23 10:25:55;;;;;;;1.20;0.80;;;;;;;23.05;27.42;101470.19;5070952;28;20940;-59
2022/09/23 10:28:36;;;;;;;1.30;0.73;;;;;;;22.68;27.46;101462.22;5067998;28;20390;-59
2022/09/23 10:31:23;;;;;;;1.10;0.80;;;;;;;22.33;27.47;101454.88;5076973;28;20455;-59
2022/09/23 10:36:20;;;;;;;2.13;1.70;;;;;;;22.35;27.52;101458.16;5083926;27;20406;-59
2022/09/23 10:38:54;;;;;;;3.40;2.03;;;;;;;22.25;27.29;101458.66;5062030;28;20465;-59
2022/09/23 10:47:52;;;;;;;1.15;0.80;;;;;;;21.92;27.85;101445.66;5070223;28;20407;-59
2022/09/23 10:52:31;;;;;;;0.70;0.65;;;;;;;22.24;27.18;101442.72;5040583;28;20471;-59
2022/09/23 10:55:18;;;;;;;1.35;0.80;;;;;;;22.11;26.98;101433.75;5035821;28;20411;-60
2022/09/23 10:57:43;;;;;;;1.50;0.88;;;;;;;22.13;26.91;101430.81;5044844;28;20409;-60
2022/09/23 11:00:39;;;;;;;2.23;0.90;;;;;;;22.24;27.11;101426.53;5042437;28;20482;-60
2022/09/23 11:03:30;;;;;;;1.30;0.90;;;;;;;22.26;27.13;101424.41;5042849;28;20389;-60
2022/09/23 11:06:09;;;;;;;2.50;0.80;;;;;;;22.24;27.15;101415.72;5039540;28;20421;-60
2022/09/23 11:08:58;;;;;;;2.13;0.80;;;;;;;22.16;27.41;101416.84;5037014;28;20476;-59
2022/09/23 11:11:36;;;;;;;0.70;0.70;;;;;;;22.26;27.54;101427.09;5031725;28;20920;-59
2022/09/23 11:14:39;;;;;;;1.08;0.70;;;;;;;22.47;27.22;101417.66;5040338;28;20404;-60
2022/09/23 11:17:16;;;;;;;1.60;0.60;;;;;;;22.63;26.32;101419.69;5042096;28;20394;-60
2022/09/23 11:20:00;;;;;;;0.77;0.70;;;;;;;22.70;26.02;101414.16;5043527;28;20384;-60
2022/09/23 11:22:58;;;;;;;0.67;0.53;;;;;;;22.71;25.56;101402.31;5030322;28;20386;-59
2022/09/23 11:25:43;;;;;;;1.75;0.88;;;;;;;22.65;25.51;101404.06;5035942;28;20397;-59
2022/09/23 11:28:28;;;;;;;1.00;0.95;;;;;;;22.67;25.90;101409.22;5042087;28;20930;-60
2022/09/23 11:31:28;;;;;;;1.50;0.87;;;;;;;22.63;25.96;101394.53;5034801;28;20437;-60
2022/09/23 11:34:27;;;;;;;1.10;0.90;;;;;;;22.73;26.33;101400.19;5034006;28;20393;-60
2022/09/23 11:37:02;;;;;;;0.93;0.75;;;;;;;22.78;26.37;101392.22;5034040;28;20379;-61
2022/09/23 11:39:35;;;;;;;15.93;7.78;;;;;;;22.87;26.15;101398.91;5028994;28;20431;-60
2022/09/23 11:42:01;;;;;;;5.53;2.65;;;;;;;22.79;25.70;101395.72;5035365;28;20951;-60
2022/09/23 11:45:07;;;;;;;2.25;1.02;;;;;;;22.81;25.74;101389.00;5032591;28;20443;-59
2022/09/23 11:47:48;;;;;;;2.37;1.60;;;;;;;22.84;26.12;101396.66;5035322;28;20465;-60
2022/09/23 11:52:19;;;;;;;1.88;1.45;;;;;;;22.80;26.82;101391.97;5126599;27;20403;-60
2022/09/23 11:54:52;;;;;;;2.70;1.58;;;;;;;22.84;27.00;101387.75;5123359;28;20402;-59
2022/09/23 11:57:41;;;;;;;5.43;1.80;;;;;;;22.86;26.49;101383.72;5124245;28;20383;-59
2022/09/23 12:00:17;;;;;;;5.00;1.90;;;;;;;22.91;26.33;101380.34;5126606;28;20460;-60
2022/09/23 12:03:22;;;;;;;9.50;1.55;;;;;;;22.90;26.22;101376.81;5126758;28;20383;-61
2022/09/23 12:05:57;;;;;;;5.67;2.30;;;;;;;22.90;26.33;101375.97;5122224;28;20819;-60
2022/09/23 12:08:36;;;;;;;3.20;1.90;;;;;;;22.95;26.18;101381.50;5120981;28;20431;-60
2022/09/23 12:11:11;;;;;;;3.80;2.10;;;;;;;22.86;26.40;101377.50;5121365;28;20417;-60
2022/09/23 12:14:14;;;;;;;4.53;1.70;;;;;;;22.84;26.64;101377.75;5112749;28;20403;-60
2022/09/23 12:17:06;;;;;;;3.67;1.50;;;;;;;22.79;26.33;101377.63;5114615;28;20393;-60
2022/09/23 12:19:41;;;;;;;4.40;1.20;;;;;;;22.80;26.28;101375.75;5115281;28;20383;-59
2022/09/23 12:22:23;;;;;;;2.08;1.10;;;;;;;22.76;26.02;101364.59;5113302;28;20391;-60
2022/09/23 12:24:57;;;;;;;1.90;1.15;;;;;;;22.70;25.59;101373.63;5115162;28;20902;-60
2022/09/23 12:27:44;;;;;;;3.47;0.97;;;;;;;22.71;25.92;101365.28;5119779;28;20792;-60
2022/09/23 12:30:12;;;;;;;3.53;1.33;;;;;;;22.70;25.94;101365.53;5111619;28;20408;-60
2022/09/23 12:32:38;;;;;;;2.33;1.88;;;;;;;22.76;26.07;101364.59;5107786;28;20928;-60
2022/09/23 12:35:06;;;;;;;1.92;1.35;;;;;;;22.69;26.18;101367.41;5108073;28;20409;-59
2022/09/23 12:37:37;;;;;;;2.20;1.30;;;;;;;22.62;26.39;101368.59;5106520;28;20388;-58
2022/09/23 12:40:20;;;;;;;9.27;1.98;;;;;;;22.65;26.51;101363.53;5108465;28;20427;-58
2022/09/23 12:42:47;;;;;;;2.95;1.65;;;;;;;22.68;26.75;101363.03;5095998;28;20396;-59
2022/09/23 12:45:31;;;;;;;2.10;1.40;;;;;;;22.71;26.52;101359.88;5110621;28;20878;-58
2022/09/23 12:48:23;;;;;;;2.15;1.27;;;;;;;22.71;26.25;101359.88;5107384;28;20766;-58
2022/09/23 12:51:07;;;;;;;1.42;1.20;;;;;;;22.74;25.61;101355.06;5121631;28;20420;-58